Kapaa, HI

5:12 PM HST on October 24, 2014 (GMT -1000)
Wheeler Army Air Field | Change Station
CLOSE
Current Station
Airport
Location: Wheeler AAF,
Elevation: 837 ft
Nearby Weather Stations

Elev 837 ft 21.48 °N, 158.04 °W | Updated 14 minutes ago

Clear
Clear
80 °F
Feels Like 83 °F
N
10
Wind Variable Wind from East
Gusts 22 mph

Today
High -- | Low -- °F
--% Chance of Precip.
Yesterday
High -- | Low -- °F
Precip. -- in
6:37 AM 6:05 PM
New Moon, 2% visible
Pressure 29.98 in
Visibility 10.0 miles
Clouds Clear
Heat Index 83 °F
Dew Point 67 °F
Humidity 64%
Rainfall 0.03 in
Snow Depth Not available.
UV 1 out of 12
Pollen Not available.
Air Quality Not available.
Flu Activity Sporadic
METAR PHHI 250258Z AUTO 09009G19KT 10SM CLR 27/20 A3001 RMK AO2 SLP151 T02690195 53002 $

More Conditions Fewer Conditions

Pressure 29.98 in
Visibility 10.0 miles
Clouds Clear
Heat Index 83 °F
Dew Point 67 °F
Humidity 64%
Rainfall 0.03 in
Snow Depth Not available.
UV 1 out of 12
Pollen Not available.
Air Quality Not available.
Flu Activity Sporadic
METAR PHHI 250258Z AUTO 09009G19KT 10SM CLR 27/20 A3001 RMK AO2 SLP151 T02690195 53002 $

More Conditions Fewer Conditions

10-Day Weather Forecast

Almanac

Astronomy

Oct. 24, 2014 Rise Set
Actual Time 6:37 AM HST 6:05 PM HST
Civil Twilight 6:14 AM HST 6:28 PM HST
Nautical Twilight 5:48 AM HST 6:54 PM HST
Astronomical Twilight 5:22 AM HST 7:20 PM HST
Moon 7:23 AM HST (10/24) 6:59 PM HST (10/24)
Length of Visible Light 12h 13m
Length of Day
11h 27m
Tomorrow will be 1m 9s shorter.
New Moon, 2% of the Moon is Illuminated
Today
New Moon
Oct 30
First Quarter
Nov 6
Full
Nov 14
Last Quarter
Nov 22
New

Today's Extremes

State Highs State Lows

Community

WunderPhotos

Upload Photos

1,764,763 photos uploaded!

Nearby

Snow Depth

Station Depth Elevation
No new snow has been reported.

Earthquake Activity

City Distance Mag. Time & Date
No recent earthquake activity has been reported nearby.
Minimum magnitude displayed is 2.5.

Coastal Water Temperatures

Place Temperature
No Stations Reporting

Nearby Weather Stations